메인 페이지
METAR-TAF:

METAR-TAF

공항 :

이타카, 뉴욕, 미국

위도: 42-29N, 경도: 076-27W, 고도: 335m

현재 날씨관측

예보는 1 시간 11분 전, 02:56시(UTC)에 발표되었습니다.
무풍
온도 -7°C
습도 86%
기압 1024 hPa
시정: 16.1km
맑음

METAR: KITH 260256Z AUTO 00000KT 10SM CLR M07/M09 A3025 RMK AO2 SLP259 T10721089 53010

시각: 23:07 (04:07 UTC)

예보

예보는 4 시간 37분 전, 23:30시(UTC)에 발표되었습니다.
예보 대상 시간: 26일 00시부터 26일 24시까지 (UTC)
서북서5kt
시정: 10km
고도 12000ft 상공 구름 보통
26일 1100시부터 (UTC)
남서5kt
시정: 10km
고도 3500ft 상공 구름 보통
26일 1800시부터 (UTC)
5kt
시정: 10km
맑음

TAF: KITH 252330Z 2600/2624 30005KT P6SM SCT120 FM261100 22005KT P6SM SCT035 FM261800 19005KT P6SM SKC

4,000개 이상의 공항 관측 자료 및 예보 (METAR 및 TAF 보고).

지도상에서 검색 가능한 기상관측소가 노란 점과 빨간 점으로 표시되어 있습니다.

기상관측소 명을 보려면 표시 위로 마우스를 이동하세요.

날씨 관측과 예보를 보려면 클릭하세요.

지도 변경 : 확대하려면 엑스 표시가 있는 녹색 버튼, 축소하려면 빼기 표시가 있는 녹색 버튼, 다음 페이지의 지도를 보려면 녹색 화살표를 클릭하세요.


METAR-TAF: